Time;durP1;ratioP1;P1;durP2;ratioP2;P2;SDS_P1;SDS_P2;PMS_P1;PMS_P2;Temp;Humidity;BMP_temperature;BMP_pressure;BME280_temperature;BME280_humidity;BME280_pressure;Samples;Min_cycle;Max_cycle;Signal;HPM_P1;HPM_P2
2023/01/26 00:01:27;;;;;;;227.48;70.22;;;;;;;-2.20;100.00;66541.28;4986338;28;20037;-83
2023/01/26 00:03:52;;;;;;;171.82;57.13;;;;;;;-2.21;100.00;66542.78;5009722;28;20435;-83
2023/01/26 00:06:19;;;;;;;223.45;73.05;;;;;;;-2.17;100.00;66544.09;5006559;28;20042;-82
2023/01/26 00:08:47;;;;;;;226.77;72.88;;;;;;;-2.15;100.00;66543.75;5000907;28;20195;-82
2023/01/26 00:11:18;;;;;;;176.50;54.92;;;;;;;-2.23;100.00;66537.94;5003201;28;20405;-83
2023/01/26 00:13:43;;;;;;;214.45;72.18;;;;;;;-2.23;100.00;66537.38;5003867;28;20103;-83
2023/01/26 00:16:12;;;;;;;154.10;48.58;;;;;;;-2.24;100.00;66533.63;4982623;28;22432;-82
2023/01/26 00:18:38;;;;;;;224.70;73.32;;;;;;;-2.21;100.00;66540.19;5003797;28;20050;-83
2023/01/26 00:21:05;;;;;;;193.88;58.40;;;;;;;-2.19;100.00;66542.41;5001244;28;21230;-82
2023/01/26 00:23:32;;;;;;;185.57;63.22;;;;;;;-2.21;100.00;66539.63;4996746;28;20111;-82
2023/01/26 00:25:57;;;;;;;223.10;75.93;;;;;;;-2.21;100.00;66537.56;5002803;28;20086;-82
2023/01/26 00:28:22;;;;;;;180.48;52.25;;;;;;;-2.22;100.00;66536.44;5005386;28;20073;-83
2023/01/26 00:30:48;;;;;;;190.57;56.13;;;;;;;;;;4986859;28;20064;-83
2023/01/26 00:33:15;;;;;;;183.15;56.95;;;;;;;-2.23;100.00;66535.31;5003647;28;20113;-83
2023/01/26 00:35:43;;;;;;;170.07;51.92;;;;;;;;;;5004711;28;20145;-82
2023/01/26 00:38:11;;;;;;;202.33;61.40;;;;;;;-2.25;100.00;66527.88;5003933;28;20115;-82
2023/01/26 00:40:38;;;;;;;161.43;45.17;;;;;;;-2.26;100.00;66537.19;5004293;28;20049;-83
2023/01/26 00:43:04;;;;;;;171.13;50.75;;;;;;;-2.28;100.00;66530.28;5003803;28;20045;-83
2023/01/26 00:45:29;;;;;;;190.85;62.67;;;;;;;-2.29;100.00;66529.16;4985305;28;20456;-83
2023/01/26 00:47:55;;;;;;;191.25;62.80;;;;;;;-2.28;100.00;66530.28;4984432;28;20034;-84
2023/01/26 00:50:20;;;;;;;216.43;66.95;;;;;;;-2.24;100.00;66534.22;4982543;28;20082;-83
2023/01/26 00:52:46;;;;;;;208.82;68.25;;;;;;;-2.22;100.00;66541.09;4985529;28;20045;-82
2023/01/26 00:55:11;;;;;;;215.05;68.45;;;;;;;-2.26;100.00;66534.56;4984829;28;20046;-82
2023/01/26 00:57:36;;;;;;;201.98;64.93;;;;;;;-2.26;100.00;66537.19;4983884;28;20056;-82
2023/01/26 01:00:03;;;;;;;199.27;62.30;;;;;;;-2.25;100.00;66538.28;4984142;28;20049;-82
2023/01/26 01:02:28;;;;;;;215.25;68.72;;;;;;;;;;4984985;28;20494;-82
2023/01/26 01:04:54;;;;;;;200.93;61.47;;;;;;;-2.23;100.00;66537.38;4984288;28;20060;-82
2023/01/26 01:07:19;;;;;;;186.23;56.67;;;;;;;;;;4981129;28;20050;-82
2023/01/26 01:09:45;;;;;;;201.40;63.17;;;;;;;-2.29;100.00;66529.16;4983949;28;20648;-82
2023/01/26 01:12:11;;;;;;;201.57;58.83;;;;;;;-2.28;100.00;66530.28;4986149;28;20054;-82
2023/01/26 01:14:36;;;;;;;193.23;51.05;;;;;;;-2.28;100.00;66529.72;4984364;28;20105;-82
2023/01/26 01:17:01;;;;;;;216.00;64.25;;;;;;;-2.25;100.00;66533.06;4983119;28;20101;-81
2023/01/26 01:19:27;;;;;;;201.45;59.47;;;;;;;;;;4984610;28;20121;-82
2023/01/26 01:21:52;;;;;;;215.07;62.60;;;;;;;-2.22;100.00;66541.09;4986516;28;20073;-81
2023/01/26 01:24:18;;;;;;;193.02;59.20;;;;;;;-2.22;100.00;66535.88;4986916;28;20616;-82
2023/01/26 01:26:43;;;;;;;152.13;43.90;;;;;;;-2.25;100.00;66535.13;4985613;28;20549;-82
2023/01/26 01:29:12;;;;;;;196.00;58.90;;;;;;;-2.25;100.00;66533.06;4984485;28;20038;-81
2023/01/26 01:31:37;;;;;;;189.40;52.72;;;;;;;-2.19;100.00;66541.84;4986556;28;20134;-82
2023/01/26 01:34:03;;;;;;;174.55;52.40;;;;;;;-2.23;100.00;66539.97;4985873;28;20089;-81
2023/01/26 01:36:30;;;;;;;191.77;55.13;;;;;;;-2.20;100.00;66538.69;4983318;28;20054;-83
2023/01/26 01:38:55;;;;;;;187.75;56.42;;;;;;;-2.23;100.00;66535.31;4983385;28;20046;-82
2023/01/26 01:41:21;;;;;;;179.45;54.45;;;;;;;-2.23;100.00;66540.53;4982390;28;20136;-81
2023/01/26 01:43:47;;;;;;;166.55;44.08;;;;;;;-2.28;100.00;66529.72;5001963;28;20044;-81
2023/01/26 01:46:12;;;;;;;132.15;39.42;;;;;;;;;;5000829;28;20049;-83
2023/01/26 01:48:55;;;;;;;194.55;54.97;;;;;;;-2.22;100.00;66541.66;4999613;28;20066;-82
2023/01/26 01:51:33;;;;;;;157.85;43.05;;;;;;;-2.24;100.00;66533.63;5000882;28;20517;-80
2023/01/26 01:54:06;;;;;;;195.20;57.30;;;;;;;-2.29;100.00;66529.16;4963292;28;20042;-82
2023/01/26 01:56:34;;;;;;;205.00;57.35;;;;;;;-2.25;100.00;66533.06;4983466;28;20152;-81
2023/01/26 01:59:00;;;;;;;175.60;46.60;;;;;;;;;;4984338;28;20038;-81
2023/01/26 02:01:26;;;;;;;179.48;52.45;;;;;;;-2.27;100.00;66531.41;5000191;28;20053;-80
2023/01/26 02:03:58;;;;;;;169.60;50.38;;;;;;;-2.26;100.00;66531.97;5000334;28;20046;-82
2023/01/26 02:06:36;;;;;;;177.98;48.78;;;;;;;-2.30;100.00;66532.69;4999538;28;20053;-83
2023/01/26 02:09:04;;;;;;;158.27;41.00;;;;;;;-2.28;100.00;66534.91;5001058;28;20049;-81
2023/01/26 02:11:48;;;;;;;176.35;52.30;;;;;;;-2.24;100.00;66534.22;5000092;28;20120;-80
2023/01/26 02:14:14;;;;;;;205.45;60.78;;;;;;;-2.21;100.00;66539.63;5001880;28;20111;-83
2023/01/26 02:16:40;;;;;;;160.23;46.78;;;;;;;-2.24;100.00;66533.63;4999137;28;20069;-83
2023/01/26 02:19:16;;;;;;;178.13;54.42;;;;;;;-2.24;100.00;66534.22;5002187;28;20665;-81
2023/01/26 02:21:45;;;;;;;194.30;56.90;;;;;;;-2.21;100.00;66531.81;5000097;28;20975;-82
2023/01/26 02:24:14;;;;;;;162.40;48.90;;;;;;;-2.23;100.00;66534.78;5001263;28;20776;-82
2023/01/26 02:26:39;;;;;;;156.13;47.50;;;;;;;-2.22;100.00;66539.03;4998918;28;20184;-82
2023/01/26 02:29:08;;;;;;;160.10;45.42;;;;;;;-2.21;100.00;66542.78;4999971;28;20525;-82
2023/01/26 02:31:35;;;;;;;192.93;56.88;;;;;;;-2.20;100.00;66538.13;5000911;28;20046;-82
2023/01/26 02:34:00;;;;;;;184.55;50.05;;;;;;;-2.17;100.00;66536.28;5001170;28;21001;-83
2023/01/26 02:36:27;;;;;;;195.57;59.28;;;;;;;;;;4999252;28;20041;-82
2023/01/26 02:39:07;;;;;;;161.52;45.92;;;;;;;;;;4999243;28;20050;-80
2023/01/26 02:44:16;;;;;;;141.45;38.30;;;;;;;-2.16;100.00;66542.63;5001048;28;20083;-83
2023/01/26 02:46:42;;;;;;;175.32;49.58;;;;;;;-2.13;100.00;66546.56;4981913;28;20689;-83
2023/01/26 02:51:50;;;;;;;158.32;44.40;;;;;;;;;;5002160;28;20049;-81
2023/01/26 02:57:03;;;;;;;197.00;61.88;;;;;;;;;;4969395;28;20075;-83
2023/01/26 02:59:28;;;;;;;163.15;46.85;;;;;;;-2.13;100.00;66546.56;4999230;28;20644;-82
2023/01/26 03:01:55;;;;;;;169.85;50.35;;;;;;;-2.14;100.00;66544.88;4999632;28;20046;-83
2023/01/26 03:04:21;;;;;;;197.60;56.35;;;;;;;-2.11;100.00;66548.78;4998883;28;20069;-83
2023/01/26 03:06:46;;;;;;;194.52;58.53;;;;;;;-2.14;100.00;66544.88;4981163;28;20089;-82
2023/01/26 03:09:12;;;;;;;177.73;51.70;;;;;;;-2.11;100.00;66548.78;5001291;28;20158;-83
2023/01/26 03:11:43;;;;;;;156.00;40.45;;;;;;;-2.09;100.00;66556.25;5004422;28;20077;-82
2023/01/26 03:14:10;;;;;;;204.60;58.53;;;;;;;-2.08;100.00;66551.59;5004958;28;20136;-83
2023/01/26 03:16:35;;;;;;;190.25;52.63;;;;;;;-2.06;100.00;66553.84;5004292;28;20464;-82
2023/01/26 03:27:40;;;;;;;184.05;49.47;;;;;;;;;;5002322;28;20053;-81
2023/01/26 03:29:46;;;;;;;150.65;45.88;;;;;;;-2.05;100.00;66554.97;4989825;28;20501;-82
2023/01/26 03:32:12;;;;;;;169.52;44.17;;;;;;;-2.05;100.00;66554.97;5003114;28;20072;-81
2023/01/26 03:34:37;;;;;;;166.13;46.53;;;;;;;-2.05;100.00;66560.72;5001108;28;20050;-81
2023/01/26 03:37:03;;;;;;;183.52;59.25;;;;;;;-2.07;100.00;66555.34;5004355;28;20084;-82
2023/01/26 03:58:41;;;;;;;157.70;45.13;;;;;;;;;;5005326;28;19932;-83
2023/01/26 04:01:09;;;;;;;188.95;57.13;;;;;;;-2.00;100.00;66560.56;5006501;28;20302;-82
2023/01/26 04:09:03;;;;;;;116.68;34.30;;;;;;;-1.97;100.00;66563.38;4996241;28;20141;-82
2023/01/26 04:11:29;;;;;;;140.60;40.63;;;;;;;-1.92;100.00;66576.81;5001318;28;20568;-80
2023/01/26 04:22:06;;;;;;;142.52;39.45;;;;;;;-1.84;100.00;66577.97;5009902;28;20189;-80
2023/01/26 04:24:31;;;;;;;175.38;51.70;;;;;;;-1.83;100.00;66579.09;4993390;28;20109;-82
2023/01/26 04:26:56;;;;;;;181.45;50.20;;;;;;;-1.77;100.00;66585.81;4984885;28;20069;-82
2023/01/26 04:29:22;;;;;;;138.80;41.65;;;;;;;-1.77;100.00;66585.81;5004143;28;20050;-80
2023/01/26 04:31:47;;;;;;;155.80;50.70;;;;;;;;;;4984808;28;20068;-80
2023/01/26 04:34:13;;;;;;;156.43;42.60;;;;;;;;;;5007149;28;20044;-83
2023/01/26 04:36:39;;;;;;;128.38;37.97;;;;;;;-1.77;100.00;66590.50;4982969;28;20049;-81
2023/01/26 04:39:05;;;;;;;129.77;37.60;;;;;;;-1.73;100.00;66590.31;4993994;28;20047;-82
2023/01/26 04:41:31;;;;;;;117.97;31.77;;;;;;;-1.73;100.00;66590.31;4973023;28;20076;-80
2023/01/26 04:43:57;;;;;;;145.52;46.63;;;;;;;-1.72;100.00;66591.44;4991277;28;20057;-83
2023/01/26 04:46:23;;;;;;;146.95;48.40;;;;;;;-1.75;100.00;66588.06;4985510;28;20042;-82
2023/01/26 04:48:48;;;;;;;123.85;37.60;;;;;;;;;;5000243;28;20103;-82
2023/01/26 04:51:18;;;;;;;101.90;33.03;;;;;;;-1.75;100.00;66587.53;5001061;28;20042;-86
2023/01/26 04:53:45;;;;;;;82.85;30.35;;;;;;;-1.74;100.00;66594.41;5003462;28;20038;-86
2023/01/26 04:56:16;;;;;;;106.70;36.22;;;;;;;;;;5000695;28;20089;-86
2023/01/26 04:58:42;;;;;;;116.63;36.33;;;;;;;-1.72;100.00;66594.06;4985244;28;20050;-85
2023/01/26 05:01:07;;;;;;;105.10;33.60;;;;;;;-1.71;100.00;66597.78;5003245;28;20068;-85
2023/01/26 05:03:32;;;;;;;86.15;23.25;;;;;;;-1.72;100.00;66591.44;4984457;28;20034;-83
2023/01/26 05:05:58;;;;;;;96.38;32.45;;;;;;;-1.72;100.00;66590.88;4983874;28;20069;-81
2023/01/26 05:08:23;;;;;;;94.30;25.55;;;;;;;-1.68;100.00;66595.94;4983865;28;20042;-83
2023/01/26 05:10:50;;;;;;;92.60;26.33;;;;;;;-1.72;100.00;66590.88;4983269;28;20069;-83
2023/01/26 05:13:15;;;;;;;114.15;35.85;;;;;;;-1.65;100.00;66599.28;4982335;28;20041;-81
2023/01/26 05:15:40;;;;;;;111.80;36.30;;;;;;;-1.61;100.00;66606.41;4981508;28;20790;-83
2023/01/26 05:18:06;;;;;;;88.35;28.30;;;;;;;-1.59;100.00;66605.47;4983527;28;20046;-81
2023/01/26 05:20:32;;;;;;;87.00;24.73;;;;;;;-1.61;100.00;66603.78;4984445;28;20060;-84
2023/01/26 05:22:58;;;;;;;104.70;31.73;;;;;;;-1.58;100.00;66609.22;4985886;28;20050;-83
2023/01/26 05:25:24;;;;;;;86.18;24.90;;;;;;;-1.57;100.00;66607.16;4981013;28;20038;-83
2023/01/26 05:27:49;;;;;;;95.80;29.00;;;;;;;-1.61;100.00;66603.25;4982142;28;20105;-83
2023/01/26 05:30:15;;;;;;;96.53;29.45;;;;;;;-1.57;100.00;66607.72;5014700;28;20133;-83
2023/01/26 05:32:40;;;;;;;84.90;23.75;;;;;;;-1.62;100.00;66607.88;4984337;28;20490;-81
2023/01/26 05:35:06;;;;;;;79.03;24.02;;;;;;;;;;4981856;28;20061;-83
2023/01/26 05:37:32;;;;;;;79.15;23.35;;;;;;;-1.59;100.00;66606.03;4982011;28;20034;-83
2023/01/26 05:39:57;;;;;;;109.55;33.28;;;;;;;;;;4983711;28;20052;-82
2023/01/26 05:42:23;;;;;;;98.22;29.00;;;;;;;-1.56;100.00;66608.84;4986757;28;20049;-85
2023/01/26 05:44:48;;;;;;;108.40;31.88;;;;;;;;;;4985354;28;20129;-85
2023/01/26 05:47:14;;;;;;;94.03;29.67;;;;;;;-1.57;100.00;66609.78;4985014;28;20049;-85
2023/01/26 05:49:44;;;;;;;92.47;28.50;;;;;;;-1.54;100.00;66610.53;4985788;28;20034;-84
2023/01/26 05:52:12;;;;;;;93.07;29.25;;;;;;;-1.54;100.00;66613.69;4984408;28;20045;-84
2023/01/26 05:54:38;;;;;;;85.57;23.80;;;;;;;-1.55;100.00;66612.56;4984371;28;20569;-85
2023/01/26 05:57:03;;;;;;;73.38;23.75;;;;;;;;;;4985591;28;20034;-85
2023/01/26 05:59:29;;;;;;;86.43;30.17;;;;;;;-1.49;100.00;66610.94;4978860;28;20050;-85
2023/01/26 06:01:55;;;;;;;76.35;24.05;;;;;;;-1.49;100.00;66616.16;4983352;28;20070;-85
2023/01/26 06:04:21;;;;;;;73.70;22.50;;;;;;;-1.45;100.00;66623.25;4983111;28;20172;-85
2023/01/26 06:06:46;;;;;;;72.32;22.02;;;;;;;;;;4980817;28;20896;-85
2023/01/26 06:09:11;;;;;;;70.35;22.75;;;;;;;;;;4986107;28;20050;-85
2023/01/26 06:11:36;;;;;;;77.47;23.15;;;;;;;-1.45;100.00;66620.63;4980867;28;20057;-84
2023/01/26 06:14:02;;;;;;;82.80;25.13;;;;;;;-1.48;100.00;66617.81;4981156;28;20437;-84
2023/01/26 06:16:28;;;;;;;68.63;22.10;;;;;;;-1.42;100.00;66626.59;4980975;28;20538;-84
2023/01/26 06:18:53;;;;;;;80.30;26.98;;;;;;;-1.44;100.00;66624.94;4981332;28;20054;-84
2023/01/26 06:21:18;;;;;;;69.95;19.73;;;;;;;-1.42;100.00;66624.00;4980020;28;20117;-85
2023/01/26 06:23:44;;;;;;;66.20;20.60;;;;;;;;;;4981061;28;20468;-85
2023/01/26 06:26:09;;;;;;;69.07;22.88;;;;;;;-1.40;100.00;66628.84;4978573;28;20070;-84
2023/01/26 06:28:35;;;;;;;63.40;22.35;;;;;;;-1.43;100.00;66628.66;4972937;28;20085;-85
2023/01/26 06:31:05;;;;;;;57.15;19.95;;;;;;;-1.43;100.00;66622.88;4997975;28;20046;-84
2023/01/26 06:33:33;;;;;;;67.93;23.48;;;;;;;-1.42;100.00;66624.56;5001462;28;20056;-84
2023/01/26 06:36:06;;;;;;;73.43;26.05;;;;;;;;;;5000680;28;20052;-84
2023/01/26 06:38:32;;;;;;;57.50;17.33;;;;;;;-1.40;100.00;66626.25;5001659;28;20038;-85
2023/01/26 06:41:06;;;;;;;74.28;24.73;;;;;;;-1.33;100.00;66633.53;4981656;28;20046;-84
2023/01/26 06:43:33;;;;;;;52.80;17.17;;;;;;;-1.36;100.00;66631.28;4985512;28;20530;-84
2023/01/26 06:46:00;;;;;;;52.35;17.65;;;;;;;-1.33;100.00;66639.31;4988670;28;20041;-84
2023/01/26 06:48:27;;;;;;;57.88;18.05;;;;;;;-1.31;100.00;66636.34;4980652;28;20041;-85
2023/01/26 06:51:02;;;;;;;63.90;20.38;;;;;;;-1.29;100.00;66641.22;4989322;28;20042;-85
2023/01/26 06:53:41;;;;;;;51.95;16.98;;;;;;;-1.30;100.00;66639.53;4991568;28;20053;-86
2023/01/26 06:56:06;;;;;;;75.70;26.42;;;;;;;-1.27;100.00;66648.09;4983306;28;20049;-85
2023/01/26 06:58:32;;;;;;;61.00;21.38;;;;;;;-1.30;100.00;66640.06;4991915;28;20035;-85
2023/01/26 07:00:58;;;;;;;44.38;17.00;;;;;;;-1.28;100.00;66639.72;4998229;28;20445;-87
2023/01/26 07:03:23;;;;;;;75.68;29.23;;;;;;;-1.27;100.00;66635.06;5022624;28;20046;-87
2023/01/26 07:05:49;;;;;;;69.07;25.75;;;;;;;-1.24;100.00;66644.19;4990740;28;20122;-85
2023/01/26 07:08:14;;;;;;;67.25;23.17;;;;;;;-1.20;100.00;66648.72;4991465;28;20054;-86
2023/01/26 07:10:39;;;;;;;58.83;21.65;;;;;;;;;;4989658;28;20595;-85
2023/01/26 07:13:05;;;;;;;65.00;23.42;;;;;;;;;;4989475;28;20453;-86
2023/01/26 07:15:30;;;;;;;52.38;18.73;;;;;;;-1.19;100.00;66649.25;4988511;28;20098;-86
2023/01/26 07:17:56;;;;;;;59.67;22.70;;;;;;;;;;4989651;28;20134;-85
2023/01/26 07:20:22;;;;;;;61.15;22.60;;;;;;;;;;4990641;28;20041;-85
2023/01/26 07:22:47;;;;;;;58.53;20.67;;;;;;;-1.19;100.00;66652.44;4998579;28;20050;-85
2023/01/26 07:25:12;;;;;;;61.30;22.92;;;;;;;-1.18;100.00;66645.72;4989198;28;20065;-86
2023/01/26 07:27:38;;;;;;;40.25;14.35;;;;;;;-1.21;100.00;66647.59;4989847;28;20042;-85
2023/01/26 07:30:04;;;;;;;63.95;24.40;;;;;;;-1.19;100.00;66654.50;4989064;28;20038;-85
2023/01/26 07:32:30;;;;;;;55.33;21.40;;;;;;;-1.16;100.00;66653.19;4989981;28;20070;-84
2023/01/26 07:34:55;;;;;;;55.08;21.13;;;;;;;-1.18;100.00;66650.97;4987710;28;20042;-85
2023/01/26 07:37:21;;;;;;;38.60;15.85;;;;;;;-1.20;100.00;66653.94;4986683;28;20402;-85
2023/01/26 07:39:47;;;;;;;55.63;24.15;;;;;;;-1.21;100.00;66647.00;4989126;28;20040;-85
2023/01/26 07:42:13;;;;;;;52.85;19.40;;;;;;;-1.17;100.00;66656.75;4989847;28;20113;-85
2023/01/26 07:44:39;;;;;;;50.88;20.13;;;;;;;-1.17;100.00;66656.75;4989339;28;20559;-84
2023/01/26 07:47:04;;;;;;;57.42;23.17;;;;;;;;;;4989595;28;20034;-84
2023/01/26 07:49:30;;;;;;;62.95;23.77;;;;;;;-1.15;100.00;66653.78;4985665;28;20041;-85
2023/01/26 07:51:56;;;;;;;76.78;28.58;;;;;;;-1.12;100.00;66657.13;4989849;28;20046;-84
2023/01/26 07:54:21;;;;;;;82.25;36.40;;;;;;;;;;4988551;28;20401;-85
2023/01/26 07:56:50;;;;;;;98.15;40.00;;;;;;;-1.10;100.00;66659.38;4985548;28;20042;-84
2023/01/26 07:59:15;;;;;;;71.18;27.25;;;;;;;;;;4990880;28;20061;-85
2023/01/26 08:01:41;;;;;;;59.65;22.35;;;;;;;;;;4989318;28;20498;-85
2023/01/26 08:04:06;;;;;;;46.65;18.70;;;;;;;;;;4989626;28;21903;-84
2023/01/26 08:06:31;;;;;;;62.92;22.45;;;;;;;-1.05;100.00;66664.44;4986339;28;20046;-85
2023/01/26 08:08:57;;;;;;;53.30;20.17;;;;;;;-1.06;100.00;66663.31;4986593;28;20042;-85
2023/01/26 08:11:24;;;;;;;54.22;20.48;;;;;;;;;;4990250;28;21322;-86
2023/01/26 08:13:49;;;;;;;61.60;24.80;;;;;;;;;;4987243;28;20034;-86
2023/01/26 08:16:15;;;;;;;54.78;19.17;;;;;;;-1.02;100.00;66668.34;4989105;28;20105;-85
2023/01/26 08:18:42;;;;;;;66.80;24.92;;;;;;;-1.01;100.00;66668.91;4990196;28;20048;-86
2023/01/26 08:21:08;;;;;;;62.38;23.33;;;;;;;-1.02;100.00;66667.78;4987202;28;20055;-88
2023/01/26 08:23:33;;;;;;;59.92;23.77;;;;;;;-1.01;100.00;66671.53;4985034;28;20070;-86
2023/01/26 08:26:08;;;;;;;43.20;15.50;;;;;;;-1.01;100.00;66669.47;4986447;28;20042;-85
2023/01/26 08:28:34;;;;;;;62.53;23.58;;;;;;;-0.97;100.00;66668.19;4986316;28;20042;-85
2023/01/26 08:31:04;;;;;;;62.35;22.25;;;;;;;;;;4989034;28;20125;-85
2023/01/26 08:33:30;;;;;;;57.20;24.00;;;;;;;-0.95;100.00;66678.25;4987981;28;20613;-86
2023/01/26 08:36:01;;;;;;;62.40;24.27;;;;;;;-0.95;100.00;66675.66;4987072;28;20387;-85
2023/01/26 08:38:28;;;;;;;63.70;22.98;;;;;;;-0.95;100.00;66678.25;4987139;28;20038;-87
2023/01/26 08:40:54;;;;;;;60.50;24.45;;;;;;;-0.93;100.00;66680.50;4986684;28;20081;-85
2023/01/26 08:43:19;;;;;;;60.63;23.75;;;;;;;;;;4986159;28;20058;-86
2023/01/26 08:45:46;;;;;;;69.68;25.15;;;;;;;-0.91;100.00;66680.16;4986622;28;20459;-86
2023/01/26 08:48:11;;;;;;;68.00;22.42;;;;;;;-0.89;100.00;66682.41;4988965;28;20046;-88
2023/01/26 08:50:36;;;;;;;68.47;23.45;;;;;;;-0.92;100.00;66684.25;4989164;28;20034;-85
2023/01/26 08:53:02;;;;;;;47.35;16.35;;;;;;;-0.89;100.00;66681.84;4991187;28;20087;-85
2023/01/26 08:55:28;;;;;;;77.50;27.15;;;;;;;-0.84;100.00;66690.06;4988122;28;20138;-85
2023/01/26 08:57:54;;;;;;;83.65;28.30;;;;;;;-0.87;100.00;66689.31;4991157;28;20053;-86
2023/01/26 09:00:19;;;;;;;76.60;26.27;;;;;;;;;;4988984;28;20061;-85
2023/01/26 09:02:45;;;;;;;73.53;24.70;;;;;;;-0.82;100.00;66689.72;4987271;28;20088;-85
2023/01/26 09:05:10;;;;;;;78.43;27.33;;;;;;;-0.80;100.00;66697.75;4987140;28;20049;-85
2023/01/26 09:07:36;;;;;;;69.05;22.80;;;;;;;-0.79;100.00;66693.63;4984955;28;20088;-86
2023/01/26 09:10:01;;;;;;;62.55;19.55;;;;;;;-0.79;100.00;66696.25;4987599;28;20042;-86
2023/01/26 09:12:26;;;;;;;87.57;27.58;;;;;;;-0.79;100.00;66693.63;4985632;28;20610;-85
2023/01/26 09:14:52;;;;;;;64.05;22.13;;;;;;;-0.79;100.00;66696.25;4988144;28;20461;-87
2023/01/26 09:17:17;;;;;;;85.78;27.60;;;;;;;-0.76;100.00;66697.00;4985219;28;20045;-85
2023/01/26 09:19:42;;;;;;;97.07;32.25;;;;;;;-0.76;100.00;66696.44;4987809;28;20495;-87
2023/01/26 09:22:08;;;;;;;100.43;32.08;;;;;;;-0.76;100.00;66702.22;4987221;28;20589;-87
2023/01/26 09:24:33;;;;;;;93.50;29.35;;;;;;;-0.73;100.00;66699.81;4986083;28;20041;-86
2023/01/26 09:26:58;;;;;;;110.35;33.75;;;;;;;-0.71;100.00;66702.06;4986813;28;20177;-86
2023/01/26 09:29:23;;;;;;;101.07;31.60;;;;;;;;;;4984933;28;20487;-85
2023/01/26 09:31:49;;;;;;;99.63;27.77;;;;;;;-0.68;100.00;66705.44;4983227;28;20049;-86
2023/01/26 09:34:14;;;;;;;117.20;33.70;;;;;;;;;;4984179;28;20042;-86
2023/01/26 09:36:39;;;;;;;134.18;34.40;;;;;;;-0.70;100.00;66703.75;4983398;28;20181;-85
2023/01/26 09:39:05;;;;;;;132.75;36.03;;;;;;;-0.69;100.00;66704.88;4984861;28;20156;-86
2023/01/26 09:41:44;;;;;;;116.30;35.13;;;;;;;-0.68;100.00;66710.66;4984321;28;20047;-86
2023/01/26 09:44:09;;;;;;;;;;;;;;;;;;4981805;28;20427;-85
2023/01/26 09:47:12;;;;;;;111.67;28.97;;;;;;;-0.75;100.00;66692.91;4983719;28;19928;-85
2023/01/26 09:49:55;;;;;;;134.85;36.42;;;;;;;-0.74;100.00;66694.03;4984373;28;20285;-85
2023/01/26 09:52:29;;;;;;;126.78;31.98;;;;;;;;;;4985142;28;20057;-85
2023/01/26 09:54:58;;;;;;;171.60;44.10;;;;;;;-0.67;100.00;66706.56;4985426;28;20054;-86
2023/01/26 09:57:27;;;;;;;112.50;29.52;;;;;;;;;;4985728;28;20042;-87
2023/01/26 10:00:01;;;;;;;127.35;30.15;;;;;;;-0.61;100.00;66717.97;4985048;28;20125;-86
2023/01/26 10:02:51;;;;;;;174.05;41.40;;;;;;;-0.63;100.00;66713.09;4983587;28;20066;-85
2023/01/26 10:05:46;;;;;;;194.57;44.53;;;;;;;-0.60;100.00;66713.88;4985036;28;20513;-87
2023/01/26 10:08:12;;;;;;;168.13;38.92;;;;;;;;;;4994657;28;20049;-85
2023/01/26 10:10:47;;;;;;;196.77;44.22;;;;;;;-0.55;100.00;66720.03;4985096;28;20592;-87
2023/01/26 10:13:15;;;;;;;144.30;36.67;;;;;;;-0.50;100.00;66725.09;4991280;28;20069;-89
2023/01/26 10:15:42;;;;;;;126.38;32.08;;;;;;;-0.49;100.00;66726.78;5004252;28;20068;-85
2023/01/26 10:18:16;;;;;;;154.43;40.28;;;;;;;-0.44;100.00;66737.06;4987182;28;20145;-85
2023/01/26 10:20:46;;;;;;;192.55;48.92;;;;;;;-0.40;100.00;66736.34;5003495;28;20037;-85
2023/01/26 10:23:16;;;;;;;149.48;42.80;;;;;;;-0.40;100.00;66735.75;4988096;28;20050;-85
2023/01/26 10:25:45;;;;;;;159.10;46.42;;;;;;;-0.36;100.00;66740.84;5003355;28;20485;-86
2023/01/26 10:28:13;;;;;;;168.50;46.75;;;;;;;-0.33;100.00;66744.19;5004705;28;20523;-85
2023/01/26 10:30:42;;;;;;;161.77;44.35;;;;;;;-0.34;100.00;66745.69;5004050;28;20079;-85
2023/01/26 10:33:13;;;;;;;181.02;46.35;;;;;;;;;;5019816;28;20042;-85
2023/01/26 10:35:38;;;;;;;145.88;40.80;;;;;;;-0.30;100.00;66752.81;5003824;28;20123;-85
2023/01/26 10:38:26;;;;;;;167.25;41.75;;;;;;;-0.29;100.00;66751.31;5004185;28;20682;-86
2023/01/26 10:40:51;;;;;;;161.00;40.10;;;;;;;-0.30;100.00;66742.34;5004252;28;20595;-84
2023/01/26 10:43:17;;;;;;;134.80;37.55;;;;;;;-0.28;100.00;66751.88;4987088;28;20050;-87
2023/01/26 10:45:44;;;;;;;148.23;40.22;;;;;;;;;;5003244;28;20049;-85
2023/01/26 10:48:25;;;;;;;150.38;42.45;;;;;;;-0.25;100.00;66757.88;5005469;28;20046;-86
2023/01/26 10:50:51;;;;;;;142.15;38.70;;;;;;;-0.24;100.00;66756.94;5003988;28;20122;-85
2023/01/26 10:53:28;;;;;;;142.50;40.60;;;;;;;-0.24;100.00;66754.31;5005045;28;20038;-87
2023/01/26 10:55:58;;;;;;;139.80;39.03;;;;;;;;;;5003397;28;20046;-87
2023/01/26 10:58:54;;;;;;;147.38;40.47;;;;;;;-0.16;100.00;66756.97;5005225;28;20041;-85
2023/01/26 11:01:26;;;;;;;162.30;41.42;;;;;;;-0.19;100.00;66758.81;4980435;28;20144;-87
2023/01/26 11:03:57;;;;;;;155.00;42.25;;;;;;;;;;5004461;28;20053;-85
2023/01/26 11:06:27;;;;;;;164.73;44.40;;;;;;;-0.14;100.00;66769.69;5003364;28;20509;-85
2023/01/26 11:08:52;;;;;;;171.88;45.58;;;;;;;;;;4986078;28;20774;-85
2023/01/26 11:11:28;;;;;;;166.77;44.35;;;;;;;;;;5004712;28;20052;-86
2023/01/26 11:14:16;;;;;;;174.13;46.80;;;;;;;-0.08;100.00;66773.81;5004143;28;20046;-86
2023/01/26 11:16:44;;;;;;;188.45;45.22;;;;;;;;;;5004296;28;20386;-86
2023/01/26 11:19:14;;;;;;;174.30;43.80;;;;;;;-0.03;100.00;66777.38;5004426;28;20221;-88
2023/01/26 11:21:46;;;;;;;170.85;42.63;;;;;;;0.02;100.00;66782.44;5004152;28;20054;-85
2023/01/26 11:24:47;;;;;;;178.50;42.08;;;;;;;0.09;100.00;66790.31;5004580;28;20042;-86
2023/01/26 11:27:26;;;;;;;157.43;43.70;;;;;;;0.18;100.00;66799.88;5009002;28;20043;-86
2023/01/26 11:30:10;;;;;;;174.15;42.33;;;;;;;0.26;100.00;66808.88;4984050;28;20095;-86
2023/01/26 11:32:50;;;;;;;175.30;43.78;;;;;;;0.29;100.00;66812.22;5006477;28;20112;-85
2023/01/26 11:35:22;;;;;;;170.00;46.05;;;;;;;;;;4991954;28;20096;-86
2023/01/26 11:37:53;;;;;;;160.05;45.03;;;;;;;;;;5011151;28;20042;-86
2023/01/26 11:40:23;;;;;;;188.65;45.80;;;;;;;0.49;100.00;66828.94;5012133;28;20103;-86
2023/01/26 11:42:50;;;;;;;176.35;42.35;;;;;;;0.53;100.00;66833.41;5008479;28;20136;-86
2023/01/26 11:45:31;;;;;;;195.35;45.00;;;;;;;;;;5010475;28;20049;-86
2023/01/26 11:48:28;;;;;;;185.27;54.42;;;;;;;0.69;100.00;66856.09;5002987;28;20041;-86
2023/01/26 11:51:11;;;;;;;186.88;48.00;;;;;;;0.71;100.00;66858.34;4987869;28;20077;-85
2023/01/26 11:53:54;;;;;;;198.32;47.63;;;;;;;0.75;100.00;66865.47;5005754;28;20076;-86
2023/01/26 11:56:29;;;;;;;201.95;51.50;;;;;;;0.84;100.00;66872.41;5006037;28;20054;-86
2023/01/26 11:59:01;;;;;;;196.90;60.38;;;;;;;0.86;100.00;66875.22;4992341;28;20069;-86
2023/01/26 12:02:02;;;;;;;204.65;48.35;;;;;;;;;;5005936;28;20136;-85
2023/01/26 12:04:32;;;;;;;197.75;46.90;;;;;;;0.96;100.00;66880.69;4893601;29;20168;-86
2023/01/26 12:07:00;;;;;;;200.80;48.90;;;;;;;;;;4987297;28;20157;-85
2023/01/26 12:09:25;;;;;;;233.30;52.67;;;;;;;;;;5006271;28;20578;-86
2023/01/26 12:12:00;;;;;;;167.82;40.33;;;;;;;1.21;100.00;66908.25;5004399;28;20120;-86
2023/01/26 12:14:44;;;;;;;223.05;50.72;;;;;;;;;;4999603;28;20054;-86
2023/01/26 12:17:48;;;;;;;203.57;51.38;;;;;;;1.35;100.00;66924.00;5003421;28;21436;-86
2023/01/26 12:20:22;;;;;;;288.70;93.63;;;;;;;;;;4986867;28;21396;-86
2023/01/26 12:23:03;;;;;;;195.15;50.92;;;;;;;1.46;100.00;66933.19;5006333;28;20050;-86
2023/01/26 12:25:33;;;;;;;194.43;48.03;;;;;;;1.52;100.00;66947.25;5012193;28;20081;-86
2023/01/26 12:28:11;;;;;;;205.93;58.70;;;;;;;1.62;100.00;66958.53;5014277;28;20049;-86
2023/01/26 12:30:48;;;;;;;206.43;60.00;;;;;;;1.70;100.00;66966.97;5014678;28;20042;-86
2023/01/26 12:33:13;;;;;;;170.38;50.28;;;;;;;;;;5016679;28;20042;-85
2023/01/26 12:35:59;;;;;;;184.75;56.53;;;;;;;1.90;100.00;66988.91;5014962;28;20046;-86